Time;durP1;ratioP1;P1;durP2;ratioP2;P2;SDS_P1;SDS_P2;PMS_P1;PMS_P2;Temp;Humidity;BMP_temperature;BMP_pressure;BME280_temperature;BME280_humidity;BME280_pressure;Samples;Min_cycle;Max_cycle;Signal;HPM_P1;HPM_P2
2021/07/11 00:02:04;;;;;;;2.43;1.50;;;16.40;99.90;;;;;;6064598;29;20205;-69
2021/07/11 00:05:09;;;;;;;1.20;1.10;;;16.30;99.90;;;;;;6065604;29;20250;-68
2021/07/11 00:08:11;;;;;;;1.90;1.80;;;16.20;99.90;;;;;;6039306;29;20209;-69
2021/07/11 00:11:14;;;;;;;2.60;1.33;;;16.20;99.90;;;;;;6052827;29;20303;-69
2021/07/11 00:14:16;;;;;;;1.10;1.10;;;16.20;99.90;;;;;;6053241;29;20276;-68
2021/07/11 00:17:18;;;;;;;3.70;1.20;;;16.10;99.90;;;;;;6052335;29;20280;-69
2021/07/11 00:20:22;;;;;;;2.67;1.30;;;16.10;99.90;;;;;;6054602;29;20205;-71
2021/07/11 00:23:24;;;;;;;1.40;1.30;;;16.10;99.90;;;;;;6052977;29;20212;-69
2021/07/11 00:26:26;;;;;;;2.03;1.33;;;16.00;99.90;;;;;;6052691;29;20715;-69
2021/07/11 00:29:29;;;;;;;1.23;1.13;;;16.00;99.90;;;;;;6053116;29;20197;-70
2021/07/11 00:32:31;;;;;;;3.23;1.50;;;15.90;99.90;;;;;;6058052;29;20197;-69
2021/07/11 00:35:34;;;;;;;1.70;1.50;;;15.90;99.90;;;;;;6053116;29;20197;-70
2021/07/11 00:38:36;;;;;;;1.43;1.33;;;15.90;99.90;;;;;;6054119;29;20241;-70
2021/07/11 00:41:40;;;;;;;1.70;1.60;;;15.80;99.90;;;;;;6053751;29;20312;-69
2021/07/11 00:44:44;;;;;;;2.60;1.60;;;15.80;99.90;;;;;;6052563;29;20217;-70
2021/07/11 00:47:47;;;;;;;2.20;2.00;;;15.70;99.90;;;;;;6068063;29;20213;-70
2021/07/11 00:50:49;;;;;;;2.53;2.00;;;15.80;99.90;;;;;;6052838;29;20292;-70
2021/07/11 00:53:53;;;;;;;1.57;1.47;;;15.80;99.90;;;;;;6052712;29;20837;-69
2021/07/11 00:56:59;;;;;;;1.53;1.43;;;15.70;99.90;;;;;;6053005;29;20201;-70
2021/07/11 01:00:08;;;;;;;5.73;1.90;;;15.70;99.90;;;;;;6052694;29;20205;-69
2021/07/11 01:03:34;;;;;;;3.03;1.67;;;15.60;99.90;;;;;;6065011;29;20216;-69
2021/07/11 01:06:48;;;;;;;1.53;1.43;;;15.60;99.90;;;;;;6052491;29;20273;-69
2021/07/11 01:09:57;;;;;;;1.50;1.40;;;15.60;99.90;;;;;;6053507;29;20186;-69
2021/07/11 01:13:02;;;;;;;1.80;1.43;;;15.60;99.90;;;;;;6052731;29;20201;-69
2021/07/11 01:16:13;;;;;;;1.70;1.60;;;15.60;99.90;;;;;;6052853;29;20582;-69
2021/07/11 01:19:28;;;;;;;1.70;1.60;;;15.60;99.90;;;;;;6053519;29;20190;-70
2021/07/11 01:22:37;;;;;;;2.30;1.43;;;15.60;99.90;;;;;;6052416;29;20684;-71
2021/07/11 01:25:49;;;;;;;1.53;1.40;;;15.50;99.90;;;;;;6052116;29;20208;-71
2021/07/11 01:28:53;;;;;;;2.67;1.60;;;15.50;99.90;;;;;;6054018;29;20190;-69
2021/07/11 01:31:59;;;;;;;2.20;1.63;;;15.50;99.90;;;;;;6066305;29;20217;-70
2021/07/11 01:35:05;;;;;;;2.10;1.70;;;15.50;99.90;;;;;;6066819;29;20262;-71
2021/07/11 01:38:09;;;;;;;1.90;1.70;;;15.50;99.90;;;;;;6057722;29;20198;-70
2021/07/11 01:41:13;;;;;;;1.40;1.30;;;15.50;99.90;;;;;;6057062;29;20573;-69
2021/07/11 01:44:16;;;;;;;2.10;1.70;;;15.50;99.90;;;;;;6056316;29;20209;-70
2021/07/11 01:47:21;;;;;;;1.67;1.57;;;15.40;99.90;;;;;;6071160;29;20309;-71
2021/07/11 01:50:24;;;;;;;1.63;1.53;;;15.40;99.90;;;;;;6056339;29;20206;-70
2021/07/11 01:53:30;;;;;;;1.60;1.50;;;15.30;99.90;;;;;;6055636;29;20218;-69
2021/07/11 01:56:34;;;;;;;1.87;1.77;;;15.30;99.90;;;;;;6055919;29;20205;-70
2021/07/11 01:59:41;;;;;;;2.43;1.53;;;15.40;99.90;;;;;;6056020;29;20206;-71
2021/07/11 02:02:59;;;;;;;2.97;1.87;;;15.40;99.90;;;;;;6057116;29;20205;-70
2021/07/11 02:06:12;;;;;;;2.20;1.80;;;15.40;99.90;;;;;;6055537;29;20213;-69
2021/07/11 02:09:19;;;;;;;2.00;1.80;;;15.40;99.90;;;;;;6055699;29;20659;-69
2021/07/11 02:12:29;;;;;;;1.97;1.50;;;15.40;99.90;;;;;;6055790;29;20672;-69
2021/07/11 02:15:34;;;;;;;1.80;1.70;;;15.40;99.90;;;;;;6055628;29;20205;-71
2021/07/11 02:18:40;;;;;;;1.60;1.50;;;15.40;99.90;;;;;;6055568;29;20725;-70
2021/07/11 02:21:53;;;;;;;1.70;1.57;;;15.40;99.90;;;;;;6055663;29;20197;-70
2021/07/11 02:24:57;;;;;;;1.97;1.87;;;15.30;99.90;;;;;;6070622;29;20198;-71
2021/07/11 02:28:07;;;;;;;2.40;2.20;;;15.30;99.90;;;;;;6055553;29;20229;-70
2021/07/11 02:31:13;;;;;;;2.33;1.70;;;15.30;99.90;;;;;;6058182;29;20197;-70
2021/07/11 02:34:15;;;;;;;4.33;1.90;;;15.20;99.90;;;;;;6061216;29;20280;-70
2021/07/11 02:37:23;;;;;;;1.80;1.70;;;15.20;99.90;;;;;;6054999;29;20209;-70
2021/07/11 02:40:26;;;;;;;1.90;1.80;;;15.20;99.90;;;;;;6055388;29;20219;-70
2021/07/11 02:43:30;;;;;;;2.17;2.07;;;15.10;99.90;;;;;;6054978;29;20218;-70
2021/07/11 02:46:38;;;;;;;1.93;1.83;;;15.20;99.90;;;;;;6054196;29;20241;-70
2021/07/11 02:49:47;;;;;;;3.73;3.37;;;15.20;99.90;;;;;;6054853;29;20208;-70
2021/07/11 02:52:52;;;;;;;2.10;1.90;;;15.20;99.90;;;;;;6055842;29;20173;-69
2021/07/11 02:55:58;;;;;;;2.00;1.87;;;15.20;99.90;;;;;;6056022;29;20213;-70
2021/07/11 02:59:09;;;;;;;2.00;1.90;;;15.30;99.90;;;;;;6056071;29;20192;-70
2021/07/11 03:02:18;;;;;;;1.83;1.50;;;15.30;99.90;;;;;;6065718;29;20639;-69
2021/07/11 03:05:23;;;;;;;2.43;1.80;;;15.40;99.90;;;;;;6059585;29;20659;-70
2021/07/11 03:08:29;;;;;;;4.63;3.37;;;15.50;99.90;;;;;;6055411;29;20248;-70
2021/07/11 03:11:40;;;;;;;2.23;1.80;;;15.50;99.90;;;;;;6054388;29;20281;-70
2021/07/11 03:14:48;;;;;;;3.10;1.90;;;15.40;99.90;;;;;;6056037;29;20551;-69
2021/07/11 03:17:55;;;;;;;28.33;23.97;;;15.40;99.90;;;;;;6054046;29;20198;-70
2021/07/11 03:21:00;;;;;;;5.13;3.83;;;15.40;99.90;;;;;;6055431;29;20193;-70
2021/07/11 03:24:04;;;;;;;3.53;3.23;;;15.40;99.90;;;;;;6053688;29;20212;-71
2021/07/11 03:27:10;;;;;;;2.30;2.10;;;15.40;99.90;;;;;;6054221;29;20300;-69
2021/07/11 03:30:16;;;;;;;3.17;2.83;;;15.40;99.90;;;;;;6054638;29;20194;-70
2021/07/11 03:33:21;;;;;;;5.87;5.10;;;15.40;99.90;;;;;;6074017;29;20797;-70
2021/07/11 03:36:25;;;;;;;2.10;2.00;;;15.40;99.90;;;;;;6060156;29;20272;-69
2021/07/11 03:39:36;;;;;;;1.57;1.47;;;15.40;99.90;;;;;;6054220;29;20196;-70
2021/07/11 03:42:42;;;;;;;2.00;1.90;;;15.30;99.90;;;;;;6068927;29;20366;-70
2021/07/11 03:45:48;;;;;;;2.63;2.37;;;15.30;99.90;;;;;;6053478;29;20243;-69
2021/07/11 03:49:04;;;;;;;2.13;1.70;;;15.40;99.90;;;;;;6052214;29;20217;-69
2021/07/11 03:52:09;;;;;;;2.20;1.80;;;15.30;99.90;;;;;;6052972;29;20204;-70
2021/07/11 03:55:12;;;;;;;1.60;1.50;;;15.50;99.90;;;;;;6053468;29;20207;-71
2021/07/11 03:58:18;;;;;;;3.70;2.80;;;15.50;99.90;;;;;;6052337;29;20802;-69
2021/07/11 04:01:24;;;;;;;23.60;18.47;;;15.60;99.90;;;;;;6057560;29;20193;-70
2021/07/11 04:04:28;;;;;;;36.70;24.50;;;15.80;99.90;;;;;;6054483;29;20688;-69
2021/07/11 04:07:33;;;;;;;10.00;7.13;;;15.90;99.90;;;;;;6052631;29;20570;-70
2021/07/11 04:10:37;;;;;;;23.40;17.20;;;15.90;99.90;;;;;;6053276;29;20198;-71
2021/07/11 04:13:40;;;;;;;16.03;10.77;;;16.10;99.90;;;;;;6036630;29;20197;-70
2021/07/11 04:16:45;;;;;;;4.77;4.17;;;16.20;99.90;;;;;;6051284;29;20314;-70
2021/07/11 04:19:49;;;;;;;3.00;2.80;;;16.40;99.90;;;;;;6053200;29;20196;-69
2021/07/11 04:22:56;;;;;;;3.20;2.30;;;16.40;99.90;;;;;;6066741;29;20666;-70
2021/07/11 04:25:59;;;;;;;4.50;2.13;;;16.50;99.90;;;;;;6052944;29;20178;-69
2021/07/11 04:29:02;;;;;;;1.80;1.70;;;16.70;99.90;;;;;;6051223;29;20228;-70
2021/07/11 04:32:05;;;;;;;2.20;2.00;;;16.80;99.90;;;;;;6062604;29;20207;-69
2021/07/11 04:35:07;;;;;;;2.80;1.77;;;16.90;99.90;;;;;;6057916;29;20201;-71
2021/07/11 04:38:09;;;;;;;3.23;1.63;;;17.00;99.90;;;;;;6052283;29;20201;-71
2021/07/11 04:41:12;;;;;;;2.37;2.13;;;17.20;99.90;;;;;;6052847;29;20696;-70
2021/07/11 04:44:14;;;;;;;4.17;1.53;;;17.20;99.90;;;;;;6035802;29;20228;-70
2021/07/11 04:47:16;;;;;;;1.50;1.40;;;17.40;99.90;;;;;;6011566;29;1247139;-70
2021/07/11 04:50:19;;;;;;;1.70;1.60;;;17.50;99.90;;;;;;6053730;29;20207;-71
2021/07/11 04:53:21;;;;;;;1.80;1.70;;;17.60;99.90;;;;;;6053395;29;20272;-70
2021/07/11 04:56:23;;;;;;;1.60;1.50;;;17.90;99.90;;;;;;6053549;29;20591;-70
2021/07/11 04:59:27;;;;;;;3.43;1.90;;;18.10;99.90;;;;;;6053063;29;20701;-70
2021/07/11 05:02:30;;;;;;;1.83;1.50;;;18.40;99.90;;;;;;6065278;29;20205;-70
2021/07/11 05:05:35;;;;;;;1.80;1.70;;;18.70;99.90;;;;;;6064502;29;20200;-69
2021/07/11 05:08:37;;;;;;;1.60;1.50;;;18.90;99.90;;;;;;6057344;29;20224;-70
2021/07/11 05:11:39;;;;;;;2.80;1.70;;;19.00;99.90;;;;;;6057963;29;20201;-69
2021/07/11 05:14:41;;;;;;;1.90;1.70;;;19.10;99.90;;;;;;6056124;29;20569;-69
2021/07/11 05:17:43;;;;;;;1.77;1.57;;;19.00;99.90;;;;;;6057697;29;20292;-70
2021/07/11 05:20:46;;;;;;;2.23;1.43;;;19.00;99.90;;;;;;6057405;29;20201;-70
2021/07/11 05:23:48;;;;;;;1.60;1.50;;;19.00;99.90;;;;;;6057883;29;20206;-70
2021/07/11 05:26:50;;;;;;;1.50;1.40;;;19.10;99.90;;;;;;6056033;29;20581;-70
2021/07/11 05:29:53;;;;;;;3.23;1.80;;;19.10;99.90;;;;;;6057027;29;20189;-70
2021/07/11 05:32:56;;;;;;;1.63;1.53;;;19.10;99.90;;;;;;6060261;29;20676;-69
2021/07/11 05:35:58;;;;;;;1.73;1.63;;;19.10;99.90;;;;;;6055317;29;20693;-71
2021/07/11 05:39:00;;;;;;;1.60;1.47;;;19.00;99.90;;;;;;6056029;29;20205;-69
2021/07/11 05:42:03;;;;;;;3.50;1.63;;;19.10;99.90;;;;;;6055920;29;20205;-70
2021/07/11 05:45:05;;;;;;;2.00;1.47;;;19.10;99.90;;;;;;6056643;29;20240;-70
2021/07/11 05:48:08;;;;;;;1.70;1.60;;;19.00;99.90;;;;;;6057063;29;20237;-71
2021/07/11 05:51:10;;;;;;;1.83;1.73;;;18.90;99.90;;;;;;6055418;29;20651;-70
2021/07/11 05:54:12;;;;;;;2.53;1.70;;;18.90;99.90;;;;;;6056969;29;20201;-70
2021/07/11 05:57:15;;;;;;;3.03;1.60;;;18.90;99.90;;;;;;6056753;29;20700;-71
2021/07/11 06:00:17;;;;;;;2.50;1.40;;;18.90;99.90;;;;;;6056254;29;20562;-70
2021/07/11 06:03:20;;;;;;;1.60;1.50;;;19.10;99.90;;;;;;6068788;29;20794;-70
2021/07/11 06:06:23;;;;;;;1.27;1.17;;;19.30;99.90;;;;;;6056267;29;20194;-70
2021/07/11 06:09:26;;;;;;;1.57;1.30;;;19.50;99.90;;;;;;6056760;29;20233;-70
2021/07/11 06:12:29;;;;;;;2.97;1.57;;;19.60;99.90;;;;;;6056409;29;20205;-69
2021/07/11 06:15:31;;;;;;;2.87;1.50;;;19.70;99.90;;;;;;6056267;29;20573;-70
2021/07/11 06:18:33;;;;;;;1.70;1.60;;;19.80;99.90;;;;;;6056425;29;20201;-71
2021/07/11 06:21:35;;;;;;;3.20;1.50;;;20.00;99.90;;;;;;6055960;29;20556;-70
2021/07/11 06:24:37;;;;;;;1.40;1.30;;;20.10;99.90;;;;;;6056374;29;20681;-71
2021/07/11 06:27:42;;;;;;;2.17;1.50;;;20.30;99.90;;;;;;6055632;29;20585;-70
2021/07/11 06:30:45;;;;;;;1.50;1.40;;;20.40;99.90;;;;;;6056147;29;20197;-71
2021/07/11 06:33:47;;;;;;;1.50;1.40;;;20.60;99.90;;;;;;6074201;29;20201;-70
2021/07/11 06:36:49;;;;;;;1.77;1.60;;;20.70;99.90;;;;;;6055343;29;20601;-70
2021/07/11 06:39:51;;;;;;;2.70;1.63;;;20.80;99.90;;;;;;6055399;29;20189;-70
2021/07/11 06:42:54;;;;;;;2.30;1.60;;;20.80;99.90;;;;;;6054043;29;20592;-71
2021/07/11 06:45:57;;;;;;;1.80;1.70;;;20.80;99.90;;;;;;6055249;29;20245;-70
2021/07/11 06:48:59;;;;;;;2.20;2.00;;;20.70;99.90;;;;;;6054566;29;20321;-70
2021/07/11 06:52:03;;;;;;;1.87;1.67;;;20.60;99.90;;;;;;6055342;29;20200;-71
2021/07/11 06:55:08;;;;;;;2.47;1.97;;;20.60;99.90;;;;;;6056327;29;20281;-70
2021/07/11 06:58:10;;;;;;;2.40;2.10;;;20.50;99.90;;;;;;6053521;29;20205;-71
2021/07/11 07:01:12;;;;;;;2.30;2.00;;;20.40;99.90;;;;;;6057192;29;20541;-70
2021/07/11 07:04:15;;;;;;;2.20;2.00;;;20.50;99.90;;;;;;6056139;29;20189;-71
2021/07/11 07:07:17;;;;;;;2.00;1.90;;;20.50;99.90;;;;;;6056393;29;20209;-71
2021/07/11 07:10:20;;;;;;;2.50;2.30;;;20.50;99.90;;;;;;6054756;29;20201;-71
2021/07/11 07:13:22;;;;;;;2.47;2.27;;;20.60;99.90;;;;;;6055486;29;20270;-69
2021/07/11 07:16:24;;;;;;;2.80;2.60;;;20.70;99.90;;;;;;6056474;29;20574;-70
2021/07/11 07:19:27;;;;;;;2.80;2.60;;;20.70;99.90;;;;;;6052889;29;20210;-69
2021/07/11 07:22:30;;;;;;;2.77;2.57;;;20.70;99.90;;;;;;6055212;29;20541;-69
2021/07/11 07:25:32;;;;;;;3.17;2.87;;;20.80;99.90;;;;;;6056025;29;20225;-70
2021/07/11 07:28:34;;;;;;;3.00;2.80;;;20.90;99.90;;;;;;6054684;29;20213;-70
2021/07/11 07:31:37;;;;;;;2.57;2.47;;;21.00;99.90;;;;;;6062044;29;20207;-69
2021/07/11 07:34:39;;;;;;;3.10;2.80;;;21.00;99.90;;;;;;6057608;29;20294;-70
2021/07/11 07:37:43;;;;;;;2.57;2.37;;;21.00;99.90;;;;;;6054571;29;20212;-71
2021/07/11 07:40:46;;;;;;;2.80;2.60;;;21.00;99.90;;;;;;6054468;29;20296;-70
2021/07/11 07:43:48;;;;;;;4.10;3.10;;;21.00;99.90;;;;;;6055512;29;20221;-69
2021/07/11 07:46:51;;;;;;;3.17;2.80;;;21.00;99.90;;;;;;6054515;29;20284;-68
2021/07/11 07:49:54;;;;;;;4.73;3.00;;;21.00;99.90;;;;;;6054074;29;20577;-70
2021/07/11 07:53:00;;;;;;;3.33;2.60;;;21.10;99.90;;;;;;6054490;29;20224;-70
2021/07/11 07:56:03;;;;;;;4.03;2.93;;;21.20;99.90;;;;;;6054374;29;20214;-69
2021/07/11 07:59:05;;;;;;;2.57;2.40;;;21.30;99.90;;;;;;6054273;29;20214;-70
2021/07/11 08:02:08;;;;;;;2.70;2.50;;;21.40;99.90;;;;;;6063092;29;20204;-69
2021/07/11 08:05:10;;;;;;;2.10;2.00;;;21.50;99.90;;;;;;6059293;29;20209;-68
2021/07/11 08:08:13;;;;;;;2.43;2.10;;;21.60;99.90;;;;;;6053033;29;20558;-69
2021/07/11 08:11:15;;;;;;;2.70;2.50;;;21.80;99.90;;;;;;6052491;29;20197;-69
2021/07/11 08:14:18;;;;;;;2.53;2.00;;;21.80;99.90;;;;;;6054951;29;20284;-70
2021/07/11 08:17:20;;;;;;;2.53;2.33;;;22.00;99.90;;;;;;6053961;29;20205;-69
2021/07/11 08:20:23;;;;;;;2.33;2.10;;;22.00;99.90;;;;;;6053549;29;20273;-69
2021/07/11 08:23:25;;;;;;;2.43;2.13;;;22.10;99.90;;;;;;6053719;29;20586;-69
2021/07/11 08:26:27;;;;;;;2.17;1.97;;;22.20;99.90;;;;;;6052149;29;20758;-69
2021/07/11 08:29:29;;;;;;;2.03;1.83;;;22.40;99.90;;;;;;6052429;29;20221;-69
2021/07/11 08:32:31;;;;;;;2.03;1.93;;;22.70;99.90;;;;;;6066101;29;20192;-68
2021/07/11 08:35:34;;;;;;;1.70;1.60;;;22.90;99.60;;;;;;6064199;29;20237;-66
2021/07/11 08:38:36;;;;;;;2.87;1.60;;;23.00;99.10;;;;;;6053642;29;20205;-70
2021/07/11 08:41:38;;;;;;;1.87;1.77;;;23.10;98.40;;;;;;6056989;29;20206;-68
2021/07/11 08:44:41;;;;;;;1.50;1.40;;;23.20;98.40;;;;;;6058782;29;20224;-70
2021/07/11 08:47:43;;;;;;;2.23;1.87;;;23.30;98.20;;;;;;6057322;29;20569;-70
2021/07/11 08:50:45;;;;;;;1.57;1.47;;;23.60;97.40;;;;;;6056915;29;20786;-69
2021/07/11 08:53:48;;;;;;;2.13;1.93;;;23.90;97.40;;;;;;6056892;29;20205;-69
2021/07/11 08:56:59;;;;;;;1.80;1.70;;;24.30;96.60;;;;;;6057795;29;20225;-69
2021/07/11 09:00:01;;;;;;;1.90;1.70;;;24.60;95.30;;;;;;6073248;29;20213;-72
2021/07/11 09:03:07;;;;;;;1.80;1.70;;;24.90;94.90;;;;;;6064517;29;20232;-70
2021/07/11 09:06:09;;;;;;;1.70;1.50;;;25.10;94.20;;;;;;6057277;29;20198;-69
2021/07/11 09:09:21;;;;;;;1.73;1.63;;;25.50;93.40;;;;;;6058661;29;20217;-70
2021/07/11 09:12:25;;;;;;;1.80;1.57;;;25.60;92.20;;;;;;6056372;29;20200;-71
2021/07/11 09:15:35;;;;;;;1.73;1.63;;;25.40;91.40;;;;;;6056821;29;20182;-71
2021/07/11 09:18:37;;;;;;;3.40;2.00;;;24.90;91.80;;;;;;6056706;29;20201;-71
2021/07/11 09:21:50;;;;;;;1.40;1.30;;;24.70;92.40;;;;;;6057707;29;20608;-70
2021/07/11 09:24:56;;;;;;;2.23;1.70;;;24.60;92.90;;;;;;6056424;29;20549;-71
2021/07/11 09:27:58;;;;;;;4.13;1.50;;;24.40;92.90;;;;;;6056637;29;20242;-71
2021/07/11 09:31:15;;;;;;;1.57;1.47;;;24.20;92.80;;;;;;6057458;29;20518;-70
2021/07/11 09:34:23;;;;;;;2.07;1.77;;;24.20;93.20;;;;;;6069414;29;20285;-71
2021/07/11 09:37:25;;;;;;;1.77;1.67;;;24.10;93.40;;;;;;6067412;29;20193;-71
2021/07/11 09:40:30;;;;;;;1.93;1.70;;;24.10;93.20;;;;;;6056937;29;20193;-71
2021/07/11 09:43:39;;;;;;;1.57;1.37;;;24.10;93.20;;;;;;6054759;29;20218;-71
2021/07/11 09:46:41;;;;;;;1.80;1.70;;;24.00;93.00;;;;;;6053382;29;20619;-72
2021/07/11 09:49:55;;;;;;;2.53;1.60;;;24.10;93.20;;;;;;6052862;29;20701;-73
2021/07/11 09:53:00;;;;;;;1.80;1.70;;;24.20;93.40;;;;;;6054086;29;20182;-72
2021/07/11 09:56:02;;;;;;;1.70;1.60;;;24.30;93.10;;;;;;6054732;29;20261;-72
2021/07/11 09:59:07;;;;;;;1.80;1.70;;;24.40;93.00;;;;;;6057790;29;20198;-73
2021/07/11 10:02:09;;;;;;;1.63;1.53;;;24.40;92.40;;;;;;6068473;29;20201;-72
2021/07/11 10:05:13;;;;;;;1.60;1.50;;;24.30;92.20;;;;;;6066900;29;20284;-73
2021/07/11 10:08:16;;;;;;;2.03;1.70;;;24.40;92.20;;;;;;6056651;29;21061;-72
2021/07/11 10:11:18;;;;;;;4.20;1.60;;;24.40;92.10;;;;;;6056490;29;20729;-72
2021/07/11 10:14:21;;;;;;;1.70;1.60;;;24.40;92.10;;;;;;6056130;29;20313;-72
2021/07/11 10:17:24;;;;;;;1.80;1.70;;;24.30;91.80;;;;;;6056401;29;20564;-72
2021/07/11 10:20:54;;;;;;;1.87;1.67;;;24.20;92.40;;;;;;6056370;29;20649;-72
2021/07/11 10:23:58;;;;;;;1.80;1.63;;;24.20;92.40;;;;;;6037850;29;20241;-73
2021/07/11 10:27:00;;;;;;;1.90;1.60;;;24.20;92.70;;;;;;6056140;29;20204;-73
2021/07/11 10:30:03;;;;;;;1.80;1.70;;;24.10;92.40;;;;;;6054929;29;20308;-73
2021/07/11 10:33:14;;;;;;;2.70;1.47;;;24.00;92.60;;;;;;6064674;29;20198;-73
2021/07/11 10:36:17;;;;;;;2.10;1.90;;;24.00;92.80;;;;;;6054479;29;20199;-74
2021/07/11 10:39:20;;;;;;;3.97;1.87;;;24.00;92.80;;;;;;6051587;29;20198;-72
2021/07/11 10:42:29;;;;;;;2.33;1.80;;;23.90;93.00;;;;;;6054695;29;20657;-72
2021/07/11 10:45:31;;;;;;;1.83;1.70;;;23.70;93.00;;;;;;6061076;29;20233;-72
2021/07/11 10:48:33;;;;;;;2.13;1.93;;;23.60;93.30;;;;;;6065430;29;20210;-72
2021/07/11 10:51:47;;;;;;;2.10;1.73;;;23.50;93.30;;;;;;6049366;29;20300;-72
2021/07/11 10:54:50;;;;;;;2.00;1.90;;;23.40;93.50;;;;;;6053354;29;20193;-72
2021/07/11 10:57:53;;;;;;;1.83;1.73;;;23.20;93.70;;;;;;6053765;29;20681;-72
2021/07/11 11:00:58;;;;;;;2.00;1.90;;;23.20;94.20;;;;;;6049385;29;20202;-72
2021/07/11 11:04:03;;;;;;;2.40;2.20;;;23.10;94.20;;;;;;6040635;29;20194;-72
2021/07/11 11:07:15;;;;;;;2.10;2.00;;;23.00;94.40;;;;;;6051976;29;20558;-72
2021/07/11 11:10:32;;;;;;;4.60;2.57;;;23.00;94.40;;;;;;6050013;29;20689;-71
2021/07/11 11:13:35;;;;;;;2.70;2.37;;;22.90;94.50;;;;;;6050901;29;20285;-72
2021/07/11 11:16:49;;;;;;;2.10;1.90;;;22.90;94.60;;;;;;6054876;29;20193;-72
2021/07/11 11:19:52;;;;;;;3.43;2.33;;;23.00;94.70;;;;;;6053983;29;20667;-72
2021/07/11 11:22:55;;;;;;;2.23;2.03;;;23.00;94.50;;;;;;6053305;29;20198;-73
2021/07/11 11:25:57;;;;;;;2.50;2.30;;;23.10;94.30;;;;;;6054335;29;20678;-73
2021/07/11 11:29:05;;;;;;;2.27;2.07;;;23.00;94.20;;;;;;6053145;29;20652;-72
2021/07/11 11:32:11;;;;;;;3.03;2.23;;;23.10;94.30;;;;;;6060197;29;20201;-72
2021/07/11 11:35:21;;;;;;;2.20;2.00;;;23.20;93.90;;;;;;6044090;29;20222;-72
2021/07/11 11:38:23;;;;;;;4.10;3.80;;;23.20;93.70;;;;;;6053515;29;20202;-72
2021/07/11 11:41:26;;;;;;;1.87;1.77;;;23.20;93.90;;;;;;6044330;29;20568;-72
2021/07/11 11:44:29;;;;;;;2.17;1.80;;;23.10;93.60;;;;;;6022848;29;20361;-73
2021/07/11 11:47:31;;;;;;;3.27;1.80;;;23.10;94.00;;;;;;6048789;29;20201;-72
2021/07/11 11:50:35;;;;;;;1.80;1.70;;;23.10;93.60;;;;;;6052060;29;20228;-72
2021/07/11 11:53:44;;;;;;;1.63;1.43;;;23.30;93.50;;;;;;6045445;29;20193;-73
2021/07/11 11:56:46;;;;;;;1.90;1.80;;;23.50;93.20;;;;;;6050818;29;20198;-73
2021/07/11 11:59:49;;;;;;;2.07;1.80;;;23.60;92.70;;;;;;6052354;29;20201;-71
2021/07/11 12:02:59;;;;;;;2.33;1.40;;;23.60;92.40;;;;;;6063928;29;20219;-76
2021/07/11 12:06:06;;;;;;;2.93;1.67;;;23.70;92.40;;;;;;6053375;29;20201;-71
2021/07/11 12:09:09;;;;;;;1.40;1.30;;;23.70;92.10;;;;;;6053992;29;20221;-71
2021/07/11 12:12:12;;;;;;;2.30;1.67;;;23.90;92.00;;;;;;6054184;29;20205;-73
2021/07/11 12:15:14;;;;;;;2.13;1.57;;;24.10;91.70;;;;;;6052487;29;20253;-72
2021/07/11 12:18:17;;;;;;;2.37;1.57;;;24.80;91.30;;;;;;6050133;29;20549;-70
2021/07/11 12:21:30;;;;;;;1.83;1.73;;;25.70;89.60;;;;;;6045803;29;20659;-72
2021/07/11 12:24:32;;;;;;;1.77;1.67;;;26.40;87.20;;;;;;6058460;29;20205;-73
2021/07/11 12:27:37;;;;;;;1.98;1.60;;;26.80;85.40;;;;;;6046951;29;20185;-74
2021/07/11 12:34:12;;;;;;;1.83;1.73;;;28.00;78.40;;;;;;6558713;23;20228;-84
2021/07/11 12:37:15;;;;;;;1.65;1.55;;;28.30;75.40;;;;;;6076841;29;20193;-83
2021/07/11 12:40:20;;;;;;;1.70;1.60;;;28.30;74.40;;;;;;6067874;29;20292;-83
2021/07/11 12:43:29;;;;;;;1.40;1.30;;;28.20;74.70;;;;;;6083081;29;20189;-82
2021/07/11 12:46:33;;;;;;;2.15;1.70;;;28.10;75.20;;;;;;6051934;29;20197;-84
2021/07/11 12:49:37;;;;;;;1.92;1.83;;;28.00;73.70;;;;;;6066530;29;20241;-83
2021/07/11 12:52:40;;;;;;;2.45;1.60;;;28.20;72.20;;;;;;6041063;29;20249;-83
2021/07/11 12:55:44;;;;;;;1.85;1.75;;;28.70;71.20;;;;;;6079193;29;20275;-84
2021/07/11 12:58:47;;;;;;;1.42;1.38;;;29.10;68.70;;;;;;6070654;29;20379;-84
2021/07/11 13:02:07;;;;;;;1.48;1.38;;;29.30;67.00;;;;;;6068469;29;20711;-84
2021/07/11 13:05:16;;;;;;;1.65;1.55;;;29.10;67.00;;;;;;6056129;29;20200;-84
2021/07/11 13:08:22;;;;;;;2.08;1.88;;;29.50;66.10;;;;;;6078798;29;20213;-84
2021/07/11 13:11:24;;;;;;;1.45;1.33;;;29.70;63.60;;;;;;6078057;29;20210;-82
2021/07/11 13:14:27;;;;;;;1.70;1.60;;;30.20;63.50;;;;;;6083410;29;20216;-83
2021/07/11 13:17:30;;;;;;;1.55;1.45;;;30.80;61.10;;;;;;6091680;29;20561;-81
2021/07/11 13:20:35;;;;;;;5.88;1.92;;;31.30;59.10;;;;;;6076804;29;20249;-84
2021/07/11 13:23:37;;;;;;;1.73;1.63;;;31.60;58.10;;;;;;6079004;29;20233;-86
2021/07/11 13:26:40;;;;;;;1.80;1.50;;;31.90;57.20;;;;;;6072745;29;20197;-84
2021/07/11 13:29:43;;;;;;;1.58;1.48;;;31.90;55.80;;;;;;6063507;29;20212;-82
2021/07/11 13:32:45;;;;;;;1.50;1.40;;;32.00;55.60;;;;;;6083493;29;20203;-83
2021/07/11 13:35:48;;;;;;;1.83;1.67;;;32.20;54.90;;;;;;6067116;29;20233;-78
2021/07/11 13:38:51;;;;;;;1.70;1.60;;;32.50;53.60;;;;;;6069748;29;20240;-84
2021/07/11 13:41:54;;;;;;;1.40;1.30;;;32.50;52.90;;;;;;6072969;29;20201;-80
2021/07/11 13:44:56;;;;;;;1.63;1.52;;;32.80;52.70;;;;;;6071847;29;20210;-84
2021/07/11 13:47:59;;;;;;;1.48;1.38;;;33.10;51.30;;;;;;6059507;29;20205;-84
2021/07/11 13:51:03;;;;;;;1.92;1.50;;;33.40;50.50;;;;;;6057852;29;20209;-85
2021/07/11 13:54:06;;;;;;;1.75;1.63;;;33.50;50.50;;;;;;6065151;29;20245;-83
2021/07/11 13:57:09;;;;;;;1.90;1.15;;;33.70;49.40;;;;;;6070549;29;20569;-84
2021/07/11 14:00:12;;;;;;;3.63;1.50;;;33.80;49.30;;;;;;6067995;29;20198;-85
2021/07/11 14:03:15;;;;;;;1.67;1.58;;;34.10;47.80;;;;;;6049566;29;20819;-85
2021/07/11 14:06:18;;;;;;;1.67;1.30;;;34.60;48.00;;;;;;6052481;29;20528;-84
2021/07/11 14:09:20;;;;;;;1.40;1.30;;;35.00;47.20;;;;;;6056683;29;20244;-84
2021/07/11 14:12:22;;;;;;;2.65;1.40;;;35.20;46.80;;;;;;6060025;29;20229;-84
2021/07/11 14:15:26;;;;;;;1.30;1.25;;;35.70;45.50;;;;;;6068916;29;20412;-84
2021/07/11 14:18:28;;;;;;;2.33;1.10;;;36.00;44.30;;;;;;6056352;29;20809;-85
2021/07/11 14:21:30;;;;;;;1.63;1.40;;;35.70;44.50;;;;;;6053634;29;20292;-86
2021/07/11 14:24:33;;;;;;;1.40;1.30;;;35.60;44.30;;;;;;6068073;29;20201;-85
2021/07/11 14:27:36;;;;;;;1.38;1.27;;;35.60;44.70;;;;;;6069639;29;20209;-82
2021/07/11 14:30:39;;;;;;;1.40;1.30;;;35.00;44.80;;;;;;6056883;29;20225;-85
2021/07/11 14:33:42;;;;;;;1.60;1.50;;;34.50;45.10;;;;;;6056184;29;20200;-84
2021/07/11 14:36:45;;;;;;;1.38;1.27;;;34.70;44.60;;;;;;6044335;29;20233;-85
2021/07/11 14:39:48;;;;;;;1.45;1.35;;;34.90;44.40;;;;;;6064339;29;20234;-83
2021/07/11 14:42:50;;;;;;;1.42;1.33;;;35.00;44.10;;;;;;6065015;29;20203;-85
2021/07/11 14:45:53;;;;;;;1.70;1.60;;;35.60;43.70;;;;;;6056355;29;20657;-85
2021/07/11 14:48:55;;;;;;;1.33;1.23;;;35.20;43.10;;;;;;6048387;29;20210;-84
2021/07/11 14:51:58;;;;;;;1.95;1.45;;;35.20;43.40;;;;;;6056138;29;20276;-84
2021/07/11 14:55:01;;;;;;;3.83;1.70;;;35.30;43.80;;;;;;6044346;29;20296;-84
2021/07/11 14:58:03;;;;;;;1.83;1.73;;;35.20;43.20;;;;;;6048426;29;20201;-84
2021/07/11 15:01:05;;;;;;;1.55;1.45;;;34.70;44.40;;;;;;6036026;29;20209;-85
2021/07/11 15:04:07;;;;;;;1.27;1.17;;;35.20;44.20;;;;;;6057963;29;20341;-85
2021/07/11 15:07:11;;;;;;;2.10;1.33;;;36.00;43.30;;;;;;6056990;29;20566;-83
2021/07/11 15:10:14;;;;;;;1.70;1.60;;;36.50;42.10;;;;;;6055953;29;20236;-84
2021/07/11 15:13:16;;;;;;;1.50;1.40;;;36.60;42.20;;;;;;6056504;29;20197;-81
2021/07/11 15:16:19;;;;;;;1.75;1.65;;;36.70;41.80;;;;;;6062109;29;20657;-83
2021/07/11 15:19:22;;;;;;;1.80;1.70;;;36.60;41.80;;;;;;6060618;29;20201;-86
2021/07/11 15:22:24;;;;;;;1.70;1.20;;;36.80;41.90;;;;;;6064843;29;20205;-84
2021/07/11 15:25:27;;;;;;;2.13;1.35;;;37.00;41.40;;;;;;6032766;29;20278;-85
2021/07/11 15:28:29;;;;;;;1.00;1.00;;;37.20;41.10;;;;;;6046880;29;20348;-84
2021/07/11 15:31:33;;;;;;;1.50;1.25;;;37.30;40.60;;;;;;6043216;29;20221;-84
2021/07/11 15:34:36;;;;;;;2.55;1.60;;;37.50;40.40;;;;;;6058287;29;20308;-84
2021/07/11 15:37:38;;;;;;;1.63;1.50;;;36.90;40.40;;;;;;6065550;29;20201;-83
2021/07/11 15:40:43;;;;;;;1.30;1.20;;;35.50;41.80;;;;;;6023527;29;20557;-84
2021/07/11 15:43:46;;;;;;;1.58;1.23;;;34.30;43.20;;;;;;6054166;29;20215;-84
2021/07/11 15:46:48;;;;;;;2.78;1.10;;;33.50;44.30;;;;;;6076167;29;20197;-79
2021/07/11 15:49:51;;;;;;;2.45;1.20;;;33.00;44.90;;;;;;6080465;29;20236;-83
2021/07/11 15:52:53;;;;;;;1.88;1.42;;;32.90;44.70;;;;;;6071254;29;20201;-82
2021/07/11 15:55:56;;;;;;;2.13;1.40;;;33.70;44.30;;;;;;6054957;29;20250;-83
2021/07/11 15:58:58;;;;;;;1.73;1.23;;;34.70;43.60;;;;;;6063941;29;20194;-81
2021/07/11 16:02:00;;;;;;;1.75;0.95;;;35.50;42.40;;;;;;6073648;29;20663;-79